Time;durP1;ratioP1;P1;durP2;ratioP2;P2;SDS_P1;SDS_P2;PMS_P1;PMS_P2;Temp;Humidity;BMP_temperature;BMP_pressure;BME280_temperature;BME280_humidity;BME280_pressure;Samples;Min_cycle;Max_cycle;Signal;HPM_P1;HPM_P2
2021/06/22 00:00:36;;;;;;;2.70;0.89;;;;;;;17.86;82.73;98779.44;2001976;79;22029;-74
2021/06/22 00:03:39;;;;;;;4.90;0.71;;;;;;;17.87;82.58;98781.13;2002286;81;20233;-73
2021/06/22 00:06:42;;;;;;;3.08;1.13;;;;;;;17.87;82.68;98777.66;2001829;81;20261;-74
2021/06/22 00:09:44;;;;;;;1.96;0.75;;;;;;;17.87;82.81;98764.53;2002184;81;20237;-74
2021/06/22 00:12:47;;;;;;;2.50;0.90;;;;;;;17.83;82.73;98776.94;2001537;81;20181;-74
2021/06/22 00:15:49;;;;;;;3.00;1.10;;;;;;;17.84;82.55;98777.78;2000006;78;20276;-75
2021/06/22 00:18:52;;;;;;;2.22;1.27;;;;;;;17.84;82.56;98776.00;1997397;81;20295;-74
2021/06/22 00:21:55;;;;;;;2.56;1.26;;;;;;;17.85;82.24;98771.63;1997190;81;20194;-73
2021/06/22 00:24:57;;;;;;;1.98;1.38;;;;;;;17.82;81.94;98756.84;1997301;81;20296;-74
2021/06/22 00:28:01;;;;;;;1.17;1.10;;;;;;;17.83;81.78;98760.31;1997502;81;20211;-75
2021/06/22 00:31:03;;;;;;;1.89;1.20;;;;;;;17.80;81.27;98763.94;1996503;78;20727;-75
2021/06/22 00:34:06;;;;;;;3.90;1.73;;;;;;;17.76;81.40;98757.09;1997483;81;20174;-75
2021/06/22 00:37:08;;;;;;;2.39;1.24;;;;;;;17.75;81.68;98752.75;1996395;81;20167;-74
2021/06/22 00:40:13;;;;;;;1.96;1.86;;;;;;;17.73;81.41;98744.09;1997279;81;20923;-74
2021/06/22 00:43:16;;;;;;;1.80;1.70;;;;;;;17.71;81.12;98748.56;1996421;81;20233;-75
2021/06/22 00:46:18;;;;;;;4.18;1.80;;;;;;;17.68;80.78;98746.94;1998112;79;21633;-75
2021/06/22 00:49:21;;;;;;;3.13;1.86;;;;;;;17.68;80.93;98751.34;2001958;81;20182;-74
2021/06/22 00:52:26;;;;;;;2.13;1.67;;;;;;;17.66;80.84;98740.03;2002128;81;20233;-75
2021/06/22 00:55:30;;;;;;;2.50;1.92;;;;;;;17.62;81.07;98741.09;2002235;81;20191;-74
2021/06/22 00:58:52;;;;;;;2.49;2.19;;;;;;;17.63;81.30;98751.50;2001746;81;20301;-75
2021/06/22 01:01:55;;;;;;;2.45;2.19;;;;;;;17.63;81.25;98754.13;1998141;78;20202;-74
2021/06/22 01:04:57;;;;;;;2.33;2.06;;;;;;;17.62;81.17;98754.22;1997370;81;20182;-74
2021/06/22 01:08:01;;;;;;;3.09;2.79;;;;;;;17.62;81.38;98752.44;1997301;81;20997;-74
2021/06/22 01:11:03;;;;;;;3.54;2.17;;;;;;;17.61;81.05;98745.47;1996648;81;20240;-74
2021/06/22 01:14:06;;;;;;;2.78;2.60;;;;;;;17.56;81.17;98733.44;1996684;81;21058;-74
2021/06/22 01:17:08;;;;;;;3.41;2.34;;;;;;;17.51;80.98;98731.88;1996034;78;20712;-73
2021/06/22 01:20:13;;;;;;;2.80;2.60;;;;;;;17.49;80.92;98728.47;1996661;81;20162;-74
2021/06/22 01:23:15;;;;;;;5.90;2.64;;;;;;;17.51;80.88;98723.16;1996615;81;20199;-74
2021/06/22 01:26:18;;;;;;;2.75;2.58;;;;;;;17.50;80.70;98739.81;1996743;81;20956;-73
2021/06/22 01:29:21;;;;;;;3.04;2.80;;;;;;;17.49;80.67;98743.38;1996843;81;20175;-73
2021/06/22 01:32:24;;;;;;;2.81;2.61;;;;;;;17.50;80.46;98738.06;2000279;79;21226;-74
2021/06/22 01:35:28;;;;;;;5.28;3.31;;;;;;;17.53;80.75;98742.31;2001652;81;20247;-74
2021/06/22 01:38:30;;;;;;;6.69;3.42;;;;;;;17.52;80.43;98740.59;2001902;81;20295;-74
2021/06/22 01:41:33;;;;;;;3.66;3.36;;;;;;;17.53;80.15;98747.56;2003736;81;20226;-74
2021/06/22 01:44:37;;;;;;;4.57;3.33;;;;;;;17.54;80.23;98751.91;2003081;81;20298;-74
2021/06/22 01:47:40;;;;;;;7.13;2.95;;;;;;;17.54;80.02;98744.03;1998394;78;20880;-74
2021/06/22 01:50:44;;;;;;;2.96;2.76;;;;;;;17.53;79.88;98737.06;1998040;81;20243;-74
2021/06/22 01:53:55;;;;;;;3.31;2.99;;;;;;;17.51;79.80;98723.16;1998473;81;20223;-74
2021/06/22 01:56:58;;;;;;;5.64;3.90;;;;;;;17.49;79.73;98725.84;1998191;81;20200;-74
2021/06/22 02:00:00;;;;;;;6.32;4.03;;;;;;;17.49;79.70;98711.88;1998468;81;20178;-74
2021/06/22 02:03:05;;;;;;;5.79;4.80;;;;;;;17.47;79.69;98704.06;1995143;81;26178;-73
2021/06/22 02:06:08;;;;;;;6.99;4.13;;;;;;;17.48;79.75;98700.53;1994578;81;20224;-75
2021/06/22 02:09:10;;;;;;;4.88;4.21;;;;;;;17.46;79.46;98709.38;1994477;81;20167;-74
2021/06/22 02:12:13;;;;;;;3.81;3.51;;;;;;;17.44;79.60;98701.59;1994634;81;20206;-74
2021/06/22 02:15:16;;;;;;;3.69;3.39;;;;;;;17.43;79.44;98694.63;1993772;81;21063;-75
2021/06/22 02:18:20;;;;;;;4.24;3.69;;;;;;;17.38;79.49;98701.81;1994590;81;20182;-74
2021/06/22 02:21:22;;;;;;;3.50;3.20;;;;;;;17.36;79.66;98706.28;1994608;81;20183;-74
2021/06/22 02:24:25;;;;;;;4.10;3.69;;;;;;;17.33;79.47;98703.81;1994659;81;20228;-74
2021/06/22 02:27:31;;;;;;;3.86;3.56;;;;;;;17.30;79.60;98708.34;1995017;81;20325;-75
2021/06/22 02:30:35;;;;;;;3.75;3.47;;;;;;;17.30;79.76;98710.97;1996103;79;20595;-73
2021/06/22 02:33:38;;;;;;;3.55;3.29;;;;;;;17.28;79.88;98711.03;2004692;81;20255;-74
2021/06/22 02:36:40;;;;;;;5.64;3.70;;;;;;;17.26;79.85;98701.53;2004239;81;20190;-74
2021/06/22 02:39:47;;;;;;;4.16;3.70;;;;;;;17.27;80.01;98697.97;2005011;81;20199;-74
2021/06/22 02:42:50;;;;;;;6.10;5.49;;;;;;;17.27;79.59;98713.72;2004705;81;20881;-76
2021/06/22 02:45:53;;;;;;;5.09;4.65;;;;;;;17.25;79.63;98712.94;2002097;78;20170;-74
2021/06/22 02:48:55;;;;;;;4.61;4.25;;;;;;;17.25;79.71;98707.69;1999670;81;20206;-74
2021/06/22 02:51:59;;;;;;;4.20;3.86;;;;;;;17.23;79.64;98705.09;1999160;81;20691;-74
2021/06/22 02:55:01;;;;;;;4.50;4.10;;;;;;;17.22;79.76;98706.88;1999337;81;20248;-74
2021/06/22 02:58:04;;;;;;;4.18;3.97;;;;;;;17.22;79.65;98696.38;1998478;81;20200;-74
2021/06/22 03:01:06;;;;;;;4.72;4.31;;;;;;;17.22;80.02;98704.25;1999745;78;20773;-74
2021/06/22 03:04:09;;;;;;;4.45;4.03;;;;;;;17.20;79.89;98706.09;2002827;81;20186;-74
2021/06/22 03:07:12;;;;;;;5.25;4.84;;;;;;;17.21;79.64;98725.31;2002705;81;20227;-74
2021/06/22 03:10:19;;;;;;;5.04;4.64;;;;;;;17.19;79.89;98729.75;2002531;81;20166;-74
2021/06/22 03:13:22;;;;;;;6.16;4.66;;;;;;;17.17;79.85;98718.50;2001525;81;20287;-74
2021/06/22 03:16:24;;;;;;;5.61;5.11;;;;;;;17.16;79.81;98722.88;1999315;78;20500;-74
2021/06/22 03:19:27;;;;;;;5.39;4.90;;;;;;;17.17;79.90;98727.22;1997495;81;20300;-74
2021/06/22 03:22:30;;;;;;;6.31;5.81;;;;;;;17.18;79.65;98730.69;1996961;81;20211;-73
2021/06/22 03:25:32;;;;;;;7.84;5.19;;;;;;;17.18;79.51;98738.56;1997373;81;20171;-74
2021/06/22 03:28:35;;;;;;;6.10;5.60;;;;;;;17.16;79.67;98745.63;2000568;81;20296;-73
2021/06/22 03:31:38;;;;;;;6.86;5.57;;;;;;;17.16;79.47;98748.25;1999334;78;20847;-74
2021/06/22 03:34:41;;;;;;;5.10;4.70;;;;;;;17.16;79.54;98756.13;2002865;81;20314;-74
2021/06/22 03:37:43;;;;;;;8.14;5.24;;;;;;;17.16;79.70;98749.13;2002237;81;20166;-74
2021/06/22 03:40:46;;;;;;;4.94;4.64;;;;;;;17.17;79.56;98749.97;2002746;81;20174;-74
2021/06/22 03:43:49;;;;;;;5.04;4.55;;;;;;;17.15;79.49;98759.69;2002506;81;20223;-74
2021/06/22 03:46:51;;;;;;;5.78;4.68;;;;;;;17.15;79.59;98752.66;2001314;78;21005;-74
2021/06/22 03:49:54;;;;;;;5.60;5.07;;;;;;;17.16;79.70;98748.25;2002378;81;20203;-74
2021/06/22 03:52:57;;;;;;;8.11;4.86;;;;;;;17.13;79.88;98765.00;2001909;81;20182;-74
2021/06/22 03:55:59;;;;;;;6.40;5.01;;;;;;;17.10;79.82;98772.13;2002741;81;20166;-74
2021/06/22 03:59:02;;;;;;;4.64;4.34;;;;;;;17.08;79.77;98768.72;2002278;81;20169;-74
2021/06/22 04:02:05;;;;;;;4.99;4.54;;;;;;;17.07;79.72;98770.50;1997922;81;22143;-75
2021/06/22 04:05:08;;;;;;;5.03;4.60;;;;;;;17.09;79.79;98775.69;1997246;81;20178;-74
2021/06/22 04:08:10;;;;;;;4.90;4.60;;;;;;;17.07;79.93;98799.34;1996665;81;20188;-74
2021/06/22 04:11:13;;;;;;;8.55;5.32;;;;;;;17.09;79.71;98789.66;1997550;81;20796;-74
2021/06/22 04:14:16;;;;;;;5.39;5.00;;;;;;;17.10;79.60;98793.97;1997075;81;20246;-74
2021/06/22 04:17:18;;;;;;;5.34;4.85;;;;;;;17.12;79.79;98796.53;2000188;78;22003;-74
2021/06/22 04:20:21;;;;;;;5.15;4.65;;;;;;;17.13;79.50;98793.84;2001991;81;20173;-74
2021/06/22 04:23:24;;;;;;;5.72;5.07;;;;;;;17.14;79.44;98803.41;2002238;81;20201;-74
2021/06/22 04:26:26;;;;;;;5.75;5.18;;;;;;;17.15;79.44;98799.88;2002357;81;20198;-74
2021/06/22 04:29:29;;;;;;;4.68;4.38;;;;;;;17.13;79.49;98793.00;2001657;81;20169;-74
2021/06/22 04:32:31;;;;;;;9.60;6.34;;;;;;;17.13;79.40;98795.63;1996878;78;20178;-73
2021/06/22 04:35:35;;;;;;;5.60;5.20;;;;;;;17.12;79.25;98794.75;1997090;81;20274;-74
2021/06/22 04:38:38;;;;;;;6.29;5.69;;;;;;;17.13;79.52;98812.22;1997258;81;20222;-74
2021/06/22 04:41:41;;;;;;;6.71;5.38;;;;;;;17.12;78.94;98817.53;1996365;81;20308;-74
2021/06/22 04:44:44;;;;;;;6.11;5.47;;;;;;;17.11;78.60;98805.31;1996767;81;20220;-74
2021/06/22 04:47:46;;;;;;;6.71;6.18;;;;;;;17.12;78.34;98796.53;2000587;79;20973;-73
2021/06/22 04:50:52;;;;;;;6.39;5.72;;;;;;;17.11;78.12;98792.19;2001697;81;20201;-74
2021/06/22 04:53:54;;;;;;;6.74;6.10;;;;;;;17.10;78.02;98793.13;2002579;81;20203;-75
2021/06/22 04:56:58;;;;;;;6.65;6.07;;;;;;;17.07;78.07;98803.75;2002433;81;20195;-75
2021/06/22 05:00:02;;;;;;;7.46;6.70;;;;;;;17.06;78.17;98802.91;2001920;81;20572;-74
2021/06/22 05:03:06;;;;;;;6.07;5.54;;;;;;;17.04;78.16;98796.81;1997503;78;20240;-74
2021/06/22 05:06:08;;;;;;;6.56;6.06;;;;;;;17.07;78.40;98788.00;1996346;81;20902;-74
2021/06/22 05:09:11;;;;;;;5.89;5.49;;;;;;;17.10;78.18;98790.50;1996952;81;20783;-74
2021/06/22 05:12:14;;;;;;;6.20;5.80;;;;;;;17.07;78.04;98790.63;1997089;81;20831;-74
2021/06/22 05:15:17;;;;;;;6.78;6.16;;;;;;;17.06;77.75;98797.66;1996844;81;20766;-74
2021/06/22 05:18:20;;;;;;;7.47;5.76;;;;;;;17.05;77.79;98803.78;2003861;81;20185;-73
2021/06/22 05:21:22;;;;;;;8.46;6.22;;;;;;;17.09;78.05;98802.75;2000802;81;20177;-72
2021/06/22 05:24:25;;;;;;;6.95;6.31;;;;;;;17.10;77.81;98809.72;2001363;81;20178;-73
2021/06/22 05:27:28;;;;;;;6.54;5.79;;;;;;;17.13;77.95;98808.72;1998761;81;20206;-73
2021/06/22 05:30:30;;;;;;;6.51;5.46;;;;;;;17.16;77.81;98803.34;1998493;79;20193;-73
2021/06/22 05:33:33;;;;;;;6.14;5.55;;;;;;;17.23;77.87;98817.91;1999670;81;20298;-73
2021/06/22 05:36:36;;;;;;;8.55;5.40;;;;;;;17.28;77.53;98812.50;1999380;81;20947;-73
2021/06/22 05:39:39;;;;;;;7.96;5.72;;;;;;;17.32;77.45;98820.19;1999438;81;20186;-73
2021/06/22 05:42:41;;;;;;;5.88;5.38;;;;;;;17.36;77.07;98813.03;1999214;81;20331;-73
2021/06/22 05:45:44;;;;;;;5.75;5.21;;;;;;;17.36;76.83;98800.78;1997667;78;20392;-73
2021/06/22 05:48:47;;;;;;;6.80;5.46;;;;;;;17.42;76.47;98804.94;1994430;81;20196;-72
2021/06/22 05:51:50;;;;;;;5.79;5.29;;;;;;;17.44;76.41;98809.19;1995166;81;20294;-73
2021/06/22 05:54:53;;;;;;;6.05;5.45;;;;;;;17.49;76.11;98815.09;1996875;81;20186;-73
2021/06/22 05:57:59;;;;;;;5.57;5.07;;;;;;;17.53;75.70;98811.41;1996689;81;20221;-73
2021/06/22 06:01:02;;;;;;;5.68;4.39;;;;;;;17.55;75.47;98815.75;1997052;79;20424;-73
2021/06/22 06:04:05;;;;;;;7.18;4.39;;;;;;;17.57;75.44;98822.63;2001710;81;20266;-73
2021/06/22 06:07:07;;;;;;;5.71;5.04;;;;;;;17.62;75.50;98822.47;2001748;81;20185;-73
2021/06/22 06:10:11;;;;;;;4.28;3.91;;;;;;;17.65;75.02;98828.44;2001384;81;20213;-74
2021/06/22 06:13:13;;;;;;;3.86;3.56;;;;;;;17.70;74.92;98823.88;2001505;81;20222;-73
2021/06/22 06:16:16;;;;;;;3.60;3.35;;;;;;;17.77;74.81;98838.47;1998928;78;23129;-74
2021/06/22 06:19:19;;;;;;;6.14;3.38;;;;;;;17.79;74.58;98844.50;1995540;81;20215;-73
2021/06/22 06:22:22;;;;;;;4.59;3.75;;;;;;;17.84;74.66;98843.44;1996502;81;20216;-73
2021/06/22 06:25:24;;;;;;;3.71;3.41;;;;;;;17.85;74.45;98835.50;1996341;81;20188;-73
2021/06/22 06:28:34;;;;;;;4.69;3.74;;;;;;;17.88;74.22;98829.25;1996718;81;20348;-72
2021/06/22 06:31:37;;;;;;;3.50;3.20;;;;;;;17.95;73.64;98842.06;1998935;78;20231;-73
2021/06/22 06:34:41;;;;;;;3.39;3.19;;;;;;;17.97;73.40;98855.16;2002634;81;20243;-73
2021/06/22 06:37:44;;;;;;;3.40;3.14;;;;;;;17.97;73.36;98857.78;2001855;81;20196;-73
2021/06/22 06:40:46;;;;;;;3.28;2.95;;;;;;;17.97;73.37;98858.63;2002638;81;20170;-73
2021/06/22 06:43:49;;;;;;;3.33;3.13;;;;;;;18.01;73.62;98860.19;2001718;81;20667;-74
2021/06/22 06:46:51;;;;;;;4.32;3.97;;;;;;;18.04;73.42;98864.47;1998193;78;20635;-75
2021/06/22 06:49:54;;;;;;;3.95;3.65;;;;;;;18.04;73.11;98864.47;2000606;81;20256;-74
2021/06/22 06:52:57;;;;;;;6.25;3.71;;;;;;;18.04;72.88;98873.19;1997170;81;20213;-74
2021/06/22 06:55:59;;;;;;;4.32;4.03;;;;;;;18.05;72.84;98881.94;1997720;81;20369;-75
2021/06/22 06:59:02;;;;;;;3.80;3.50;;;;;;;18.05;72.65;98881.94;1997055;81;20289;-74
2021/06/22 07:02:05;;;;;;;3.88;3.26;;;;;;;18.06;72.80;98883.63;1999576;78;20186;-75
2021/06/22 07:05:08;;;;;;;3.21;3.01;;;;;;;18.07;72.89;98878.31;2002395;81;20311;-73
2021/06/22 07:08:11;;;;;;;3.84;3.50;;;;;;;18.12;72.63;98886.84;2002418;81;20175;-74
2021/06/22 07:11:16;;;;;;;3.46;3.24;;;;;;;18.15;72.94;98893.78;2002489;81;20753;-80
2021/06/22 07:14:24;;;;;;;3.75;3.44;;;;;;;18.21;73.23;98897.91;2002512;81;20190;-71
2021/06/22 07:17:26;;;;;;;4.56;3.46;;;;;;;18.23;73.01;98886.38;1997202;81;20669;-72
2021/06/22 07:20:29;;;;;;;4.50;3.70;;;;;;;18.31;73.63;98904.44;1996975;81;20633;-72
2021/06/22 07:23:32;;;;;;;4.70;3.79;;;;;;;18.37;73.05;98915.56;1997693;81;20670;-71
2021/06/22 07:26:35;;;;;;;3.84;3.50;;;;;;;18.39;72.57;98918.13;1997624;81;20190;-75
2021/06/22 07:29:40;;;;;;;6.07;3.69;;;;;;;18.36;72.45;98928.78;1997379;81;20222;-71
2021/06/22 07:32:43;;;;;;;5.29;3.59;;;;;;;18.30;72.60;98924.63;2001068;79;23207;-74
2021/06/22 07:35:46;;;;;;;5.13;3.78;;;;;;;18.29;72.69;98919.44;2002292;81;20174;-72
2021/06/22 07:38:49;;;;;;;6.50;3.22;;;;;;;18.29;72.80;98914.16;2001644;81;20253;-74
2021/06/22 07:41:51;;;;;;;4.03;3.64;;;;;;;18.31;72.41;98905.31;2001448;81;20258;-74
2021/06/22 07:44:54;;;;;;;5.13;3.53;;;;;;;18.35;72.65;98900.78;2001681;81;20963;-71
2021/06/22 07:47:57;;;;;;;7.74;3.70;;;;;;;18.40;72.30;98899.66;1996073;78;21361;-75
2021/06/22 07:51:01;;;;;;;3.56;3.26;;;;;;;18.46;72.09;98902.91;1997321;81;20223;-73
2021/06/22 07:54:04;;;;;;;3.47;3.24;;;;;;;18.46;71.84;98902.91;1996857;81;20264;-73
2021/06/22 07:57:07;;;;;;;5.09;3.24;;;;;;;18.48;71.89;98906.34;1997042;81;20356;-73
2021/06/22 08:03:42;;;;;;;3.50;3.30;;;;;;;18.51;72.04;98908.84;2003596;81;20305;-73
2021/06/22 08:06:45;;;;;;;6.09;3.41;;;;;;;18.49;72.18;98902.78;2001549;81;20161;-72
2021/06/22 08:09:47;;;;;;;3.83;3.36;;;;;;;18.46;71.97;98906.41;2005331;80;20252;-73
2021/06/22 08:12:50;;;;;;;3.30;3.09;;;;;;;18.46;71.96;98909.03;2001748;81;20203;-73
2021/06/22 08:15:55;;;;;;;4.19;3.13;;;;;;;18.46;71.91;98906.41;1998649;78;40375;-73
2021/06/22 08:18:57;;;;;;;3.33;3.03;;;;;;;18.45;72.10;98917.00;1997054;81;20191;-74
2021/06/22 08:22:02;;;;;;;5.44;3.08;;;;;;;18.42;71.90;98913.56;1996664;81;20874;-74
2021/06/22 08:25:10;;;;;;;6.89;3.35;;;;;;;18.40;72.21;98911.94;1996738;81;20170;-74
2021/06/22 08:28:13;;;;;;;4.44;3.36;;;;;;;18.36;72.11;98921.75;1997040;81;20314;-74
2021/06/22 08:31:18;;;;;;;3.06;2.64;;;;;;;18.31;72.53;98922.84;1997717;78;21812;-74
2021/06/22 08:34:21;;;;;;;3.53;3.33;;;;;;;18.30;72.55;98929.88;2001425;81;20197;-74
2021/06/22 08:37:24;;;;;;;3.53;3.22;;;;;;;18.26;72.70;98927.44;2001751;81;20225;-74
2021/06/22 08:40:27;;;;;;;3.38;3.13;;;;;;;18.20;72.70;98928.56;2002411;81;20203;-74
2021/06/22 08:43:30;;;;;;;3.10;2.92;;;;;;;18.20;72.85;98925.94;2001623;80;20226;-74
2021/06/22 08:46:34;;;;;;;2.96;2.76;;;;;;;18.19;73.01;98936.53;1998033;78;33110;-74
2021/06/22 08:49:37;;;;;;;3.33;3.11;;;;;;;18.19;73.23;98937.38;1996550;81;20174;-74
2021/06/22 08:52:42;;;;;;;4.49;2.74;;;;;;;18.18;73.58;98942.72;1996765;81;20691;-73
2021/06/22 08:55:44;;;;;;;3.99;3.08;;;;;;;18.17;73.60;98943.63;1996323;81;20271;-74
2021/06/22 08:58:47;;;;;;;7.66;3.03;;;;;;;18.16;73.34;98932.25;1996611;81;21041;-73
2021/06/22 09:01:50;;;;;;;6.14;2.56;;;;;;;18.17;73.26;98943.63;1998214;78;47476;-75
2021/06/22 09:04:55;;;;;;;5.78;2.95;;;;;;;18.20;73.26;98956.63;2001521;81;20308;-74
2021/06/22 09:07:57;;;;;;;2.75;2.46;;;;;;;18.18;73.26;98947.97;2001380;81;20327;-73
2021/06/22 09:11:09;;;;;;;2.55;2.45;;;;;;;18.19;73.15;98957.56;2002023;81;20203;-73
2021/06/22 09:14:13;;;;;;;2.71;2.31;;;;;;;18.18;73.60;98951.44;2001400;81;20284;-74
2021/06/22 09:17:16;;;;;;;3.83;3.14;;;;;;;18.19;73.57;98950.53;2000822;78;23115;-74
2021/06/22 09:20:37;;;;;;;3.72;2.79;;;;;;;18.19;73.75;98949.66;2001527;81;20310;-74
2021/06/22 09:23:41;;;;;;;4.07;2.40;;;;;;;18.21;74.06;98950.44;2001645;81;20198;-74
2021/06/22 09:26:46;;;;;;;3.35;2.83;;;;;;;18.22;74.38;98945.13;2000739;81;20214;-74
2021/06/22 09:29:49;;;;;;;4.68;2.95;;;;;;;18.28;74.23;98954.50;2001263;81;20185;-74
2021/06/22 09:32:51;;;;;;;7.54;2.25;;;;;;;18.32;73.71;98958.75;1995923;79;21674;-74
2021/06/22 09:36:09;;;;;;;3.41;2.61;;;;;;;18.36;74.08;98961.16;1997242;81;20174;-74
2021/06/22 09:39:12;;;;;;;2.46;2.29;;;;;;;18.45;73.78;98953.78;1996908;81;20198;-74
2021/06/22 09:42:14;;;;;;;3.75;2.69;;;;;;;18.47;73.30;98960.69;1996800;81;20291;-74
2021/06/22 09:45:19;;;;;;;4.24;2.42;;;;;;;18.46;73.13;98952.88;1995852;81;20200;-74
2021/06/22 09:48:26;;;;;;;4.14;1.95;;;;;;;18.42;73.36;98960.03;1996418;81;20888;-74
2021/06/22 09:51:39;;;;;;;3.06;2.25;;;;;;;18.42;73.57;98960.03;1996336;81;20200;-74
2021/06/22 09:54:41;;;;;;;3.92;2.76;;;;;;;18.40;74.53;98960.13;1995892;81;20653;-74
2021/06/22 09:57:44;;;;;;;3.85;2.24;;;;;;;18.40;74.70;98960.13;1996777;81;20182;-74
2021/06/22 10:00:47;;;;;;;2.39;2.19;;;;;;;18.42;75.08;98963.53;1997739;78;21920;-74
2021/06/22 10:03:49;;;;;;;4.00;2.80;;;;;;;18.48;75.10;98962.41;2002847;81;20241;-74
2021/06/22 10:07:13;;;;;;;2.90;2.04;;;;;;;18.47;75.06;98967.72;2002645;81;20223;-74
2021/06/22 10:10:15;;;;;;;3.84;2.49;;;;;;;18.43;75.21;98978.38;2002255;81;20223;-75
2021/06/22 10:13:43;;;;;;;3.28;2.60;;;;;;;18.44;75.31;98976.59;2002768;81;20223;-74
2021/06/22 10:16:45;;;;;;;3.49;2.34;;;;;;;18.51;75.27;98972.81;1998929;78;22927;-74
2021/06/22 10:19:50;;;;;;;4.05;3.39;;;;;;;18.56;75.79;98976.09;1997453;81;20186;-74
2021/06/22 10:22:53;;;;;;;4.71;2.51;;;;;;;18.69;75.66;98974.66;1997848;81;20179;-74
2021/06/22 10:25:56;;;;;;;2.13;1.91;;;;;;;18.78;75.25;98973.38;1997549;81;20183;-74
2021/06/22 10:29:00;;;;;;;4.01;2.56;;;;;;;18.83;74.75;98968.78;1997060;81;20199;-75
2021/06/22 10:32:04;;;;;;;2.96;2.38;;;;;;;18.83;74.73;98974.03;1999534;79;45953;-73
2021/06/22 10:35:11;;;;;;;3.31;2.90;;;;;;;18.83;74.80;98970.53;2002619;81;20185;-73
2021/06/22 10:38:19;;;;;;;2.84;2.64;;;;;;;18.80;74.86;98966.28;2002407;81;21296;-74
2021/06/22 10:41:23;;;;;;;7.83;2.83;;;;;;;18.77;75.33;98966.41;2001725;81;20198;-74
2021/06/22 10:44:27;;;;;;;2.58;2.38;;;;;;;18.77;75.09;98965.56;2001527;81;20169;-74
2021/06/22 10:47:33;;;;;;;2.59;2.25;;;;;;;18.75;75.55;98965.63;1996694;78;31314;-74
2021/06/22 10:50:36;;;;;;;5.01;2.24;;;;;;;18.75;75.86;98970.03;1997282;81;20271;-74
2021/06/22 10:53:42;;;;;;;2.53;2.33;;;;;;;18.76;75.66;98963.88;1996937;81;20717;-74
2021/06/22 10:56:45;;;;;;;2.69;2.29;;;;;;;18.78;76.02;98962.88;1996982;81;20206;-74
2021/06/22 11:00:03;;;;;;;3.30;2.11;;;;;;;18.79;75.74;98975.09;1997392;81;20778;-75
2021/06/22 11:03:06;;;;;;;4.14;2.39;;;;;;;18.83;75.90;98971.41;1992242;81;20228;-74
2021/06/22 11:06:14;;;;;;;2.54;2.04;;;;;;;18.88;76.57;98976.47;1992062;81;20783;-71
2021/06/22 11:09:19;;;;;;;2.08;1.89;;;;;;;18.94;76.78;98971.78;1992140;81;20273;-71
2021/06/22 11:12:24;;;;;;;2.22;2.13;;;;;;;19.06;76.80;98980.06;1991353;81;20208;-71
2021/06/22 11:15:50;;;;;;;4.03;1.94;;;;;;;19.20;76.73;98982.88;1990082;81;20221;-70
2021/06/22 11:18:56;;;;;;;3.63;2.17;;;;;;;19.28;76.45;98983.41;1991482;81;20361;-71
2021/06/22 11:21:58;;;;;;;3.30;1.60;;;;;;;19.40;76.98;98984.63;1991861;81;20923;-71
2021/06/22 11:25:01;;;;;;;2.00;1.90;;;;;;;19.48;76.78;98988.59;1991981;81;20183;-72
2021/06/22 11:28:04;;;;;;;3.30;2.00;;;;;;;19.51;76.60;98985.81;1992139;81;20236;-70
2021/06/22 11:31:06;;;;;;;2.11;2.00;;;;;;;19.66;76.63;98975.50;1991663;81;20211;-70
2021/06/22 11:34:10;;;;;;;4.38;2.41;;;;;;;19.84;77.12;98978.09;1991952;81;20200;-70
2021/06/22 11:37:16;;;;;;;2.03;1.90;;;;;;;19.94;76.52;98972.41;1991352;81;20228;-70
2021/06/22 11:40:21;;;;;;;2.00;1.63;;;;;;;20.06;75.21;98975.25;1991684;81;20167;-70
2021/06/22 11:43:24;;;;;;;3.22;1.81;;;;;;;20.08;75.45;98977.81;1990911;81;20232;-70
2021/06/22 11:46:30;;;;;;;2.63;2.42;;;;;;;20.04;74.85;98971.84;1991611;81;20332;-70
2021/06/22 11:49:39;;;;;;;2.24;2.08;;;;;;;20.03;74.44;98966.66;1990945;81;20276;-70
2021/06/22 11:52:45;;;;;;;2.45;2.03;;;;;;;20.10;74.65;98962.78;1991981;81;20747;-70
2021/06/22 11:55:49;;;;;;;6.14;2.30;;;;;;;20.13;74.04;98958.22;1991175;81;20205;-71
2021/06/22 11:58:53;;;;;;;5.39;2.13;;;;;;;20.16;73.92;98949.31;1991692;81;20211;-70
2021/06/22 12:01:56;;;;;;;2.65;2.01;;;;;;;20.16;73.98;98950.16;1991183;81;20266;-71
2021/06/22 12:05:09;;;;;;;1.91;1.75;;;;;;;20.26;74.50;98947.91;1991580;81;20252;-70
2021/06/22 12:08:13;;;;;;;2.08;1.91;;;;;;;20.38;74.65;98951.69;1991257;81;20270;-71
2021/06/22 12:11:35;;;;;;;2.64;2.00;;;;;;;20.47;73.50;98951.28;1991704;81;20319;-69
2021/06/22 12:14:47;;;;;;;5.25;2.17;;;;;;;20.46;73.29;98946.91;1991681;81;20228;-69
2021/06/22 12:17:50;;;;;;;3.13;1.81;;;;;;;20.39;72.83;98954.25;1991349;81;20699;-71
2021/06/22 12:20:53;;;;;;;1.63;1.52;;;;;;;20.30;73.09;98951.25;1991588;81;20167;-73
2021/06/22 12:24:00;;;;;;;2.11;1.91;;;;;;;20.26;73.19;98953.16;1991998;81;20211;-72
2021/06/22 12:27:04;;;;;;;1.90;1.78;;;;;;;20.38;73.13;98941.16;1991795;81;20791;-73
2021/06/22 12:30:07;;;;;;;2.63;1.84;;;;;;;20.59;73.38;98944.47;1992134;81;20307;-71
2021/06/22 12:33:19;;;;;;;1.63;1.52;;;;;;;20.83;72.24;98945.84;1991053;81;20892;-72
2021/06/22 12:36:22;;;;;;;1.70;1.50;;;;;;;20.97;71.24;98940.66;1991627;81;20284;-72
2021/06/22 12:39:34;;;;;;;2.00;1.48;;;;;;;21.00;70.91;98942.28;1989816;81;20236;-71
2021/06/22 12:42:44;;;;;;;3.65;1.75;;;;;;;21.01;70.62;98944.00;1990833;81;21185;-71
2021/06/22 12:46:01;;;;;;;1.81;1.48;;;;;;;20.94;70.07;98948.75;1991097;81;20614;-71
2021/06/22 12:49:07;;;;;;;3.20;1.58;;;;;;;20.82;70.49;98946.75;1990976;81;20199;-71
2021/06/22 12:52:10;;;;;;;1.67;1.58;;;;;;;20.78;70.37;98951.34;1990943;81;20978;-71
2021/06/22 12:55:13;;;;;;;2.80;1.44;;;;;;;20.71;70.38;98947.34;1991546;81;20213;-71
2021/06/22 12:58:16;;;;;;;2.66;1.52;;;;;;;20.66;70.75;98956.44;1990912;81;20931;-71
2021/06/22 13:01:48;;;;;;;2.80;1.50;;;;;;;20.68;70.93;98957.22;1990849;81;20730;-71
2021/06/22 13:04:53;;;;;;;1.60;1.50;;;;;;;20.69;70.60;98967.69;1988353;81;20565;-72
2021/06/22 13:07:59;;;;;;;1.67;1.48;;;;;;;20.70;70.53;98968.53;1991698;81;20265;-71
2021/06/22 13:11:05;;;;;;;1.40;1.30;;;;;;;20.65;70.65;98979.34;1991741;81;20225;-71
2021/06/22 13:14:14;;;;;;;1.41;1.14;;;;;;;20.59;70.85;98982.28;1992108;81;20810;-71
2021/06/22 13:17:25;;;;;;;2.79;1.20;;;;;;;20.62;71.29;98976.84;1991592;81;20593;-71
2021/06/22 13:20:27;;;;;;;1.21;1.11;;;;;;;20.73;71.16;98984.19;1991362;81;20851;-71
2021/06/22 13:23:40;;;;;;;3.47;1.42;;;;;;;20.80;70.87;98993.50;1991593;81;20199;-71
2021/06/22 13:26:44;;;;;;;2.44;1.17;;;;;;;20.88;70.45;98986.03;1991013;81;20204;-71
2021/06/22 13:29:53;;;;;;;2.15;1.13;;;;;;;20.96;70.13;98985.63;1991677;81;20194;-71
2021/06/22 13:32:58;;;;;;;1.51;1.20;;;;;;;21.07;70.10;98978.00;1991536;81;20179;-71
2021/06/22 13:36:01;;;;;;;1.55;1.14;;;;;;;21.27;69.90;98977.78;1991057;81;20178;-71
2021/06/22 13:39:10;;;;;;;2.71;0.90;;;;;;;21.64;69.75;98973.97;1990790;81;20324;-71
2021/06/22 13:42:13;;;;;;;2.14;0.94;;;;;;;21.97;68.37;98976.47;1991198;81;20210;-73
2021/06/22 13:45:15;;;;;;;1.63;1.08;;;;;;;22.03;67.15;98970.81;1991700;81;20183;-71
2021/06/22 13:48:27;;;;;;;1.11;0.91;;;;;;;22.07;66.77;98965.38;1991252;81;20198;-71
2021/06/22 13:51:32;;;;;;;1.98;1.27;;;;;;;22.00;66.68;98962.22;1991111;81;20634;-71
2021/06/22 13:54:35;;;;;;;1.99;1.10;;;;;;;21.77;66.57;98952.97;1991570;81;20305;-71
2021/06/22 13:57:39;;;;;;;1.34;1.00;;;;;;;21.46;67.18;98951.22;1991931;81;20242;-70
2021/06/22 14:00:42;;;;;;;2.24;1.14;;;;;;;21.28;67.89;98949.59;1991499;81;20167;-73
2021/06/22 14:03:45;;;;;;;1.30;0.86;;;;;;;21.13;68.48;98952.09;1990743;81;20248;-71
2021/06/22 14:06:48;;;;;;;2.47;1.20;;;;;;;20.97;68.98;98971.47;1990917;81;20747;-71
2021/06/22 14:09:52;;;;;;;1.20;0.96;;;;;;;20.83;69.39;98972.25;1990597;81;20202;-70
2021/06/22 14:12:54;;;;;;;3.67;1.21;;;;;;;20.72;70.59;98982.50;1991324;81;20256;-71
2021/06/22 14:16:01;;;;;;;4.14;1.10;;;;;;;20.59;71.67;98999.88;1991152;81;20285;-70
2021/06/22 14:19:04;;;;;;;2.56;1.30;;;;;;;20.43;72.22;98998.03;1991051;81;20674;-70
2021/06/22 14:22:06;;;;;;;2.95;1.75;;;;;;;20.29;72.88;98989.94;1991477;81;20260;-70
2021/06/22 14:25:10;;;;;;;3.81;1.88;;;;;;;20.13;73.96;98983.75;1991354;81;20741;-70
2021/06/22 14:28:17;;;;;;;11.73;2.29;;;;;;;19.94;75.22;98970.63;1991461;81;20171;-72
2021/06/22 14:31:20;;;;;;;8.04;2.08;;;;;;;19.76;76.53;99008.41;1994666;81;20179;-70